Time;durP1;ratioP1;P1;durP2;ratioP2;P2;SDS_P1;SDS_P2;PMS_P1;PMS_P2;Temp;Humidity;BMP_temperature;BMP_pressure;BME280_temperature;BME280_humidity;BME280_pressure;Samples;Min_cycle;Max_cycle;Signal;HPM_P1;HPM_P2
2022/06/19 00:00:17;;;;;;;12.23;6.97;;;23.70;78.70;;;;;;2071216;28;20105;-68
2022/06/19 00:01:17;;;;;;;11.70;6.53;;;23.70;78.70;;;;;;2071951;28;20026;-68
2022/06/19 00:02:20;;;;;;;12.15;7.10;;;23.70;78.70;;;;;;2072195;28;20173;-68
2022/06/19 00:03:27;;;;;;;13.90;7.03;;;23.60;78.60;;;;;;2071988;28;20034;-68
2022/06/19 00:04:28;;;;;;;15.27;6.93;;;23.60;78.70;;;;;;2072116;28;20392;-68
2022/06/19 00:05:30;;;;;;;12.50;6.93;;;23.60;78.70;;;;;;2072250;28;20026;-68
2022/06/19 00:06:30;;;;;;;13.18;6.80;;;23.60;78.80;;;;;;2071892;28;20026;-68
2022/06/19 00:07:32;;;;;;;18.23;7.05;;;23.60;78.90;;;;;;2071635;28;20376;-68
2022/06/19 00:08:33;;;;;;;14.40;6.93;;;23.50;78.90;;;;;;2071167;28;20030;-68
2022/06/19 00:09:33;;;;;;;14.35;7.20;;;23.50;78.90;;;;;;2070771;28;20046;-68
2022/06/19 00:10:34;;;;;;;15.55;7.15;;;23.50;79.10;;;;;;2070578;28;20022;-69
2022/06/19 00:11:36;;;;;;;17.17;7.68;;;23.50;79.30;;;;;;2071435;28;20675;-67
2022/06/19 00:12:37;;;;;;;15.35;7.20;;;23.50;79.50;;;;;;2070690;28;20527;-67
2022/06/19 00:13:39;;;;;;;15.15;7.32;;;23.50;79.70;;;;;;2070749;28;20038;-68
2022/06/19 00:14:39;;;;;;;17.23;7.50;;;23.40;79.80;;;;;;2071046;28;20030;-68
2022/06/19 00:15:40;;;;;;;14.75;7.68;;;23.40;79.90;;;;;;2071239;28;20240;-68
2022/06/19 00:16:41;;;;;;;14.25;7.50;;;23.40;80.00;;;;;;2071139;28;20037;-68
2022/06/19 00:17:41;;;;;;;21.48;8.13;;;23.40;80.10;;;;;;2070982;28;20377;-68
2022/06/19 00:18:42;;;;;;;13.82;7.30;;;23.40;80.20;;;;;;2070469;28;20030;-68
2022/06/19 00:19:43;;;;;;;15.52;7.63;;;23.40;80.10;;;;;;2071202;28;20061;-69
2022/06/19 00:20:44;;;;;;;14.68;7.75;;;23.40;80.20;;;;;;2071310;28;20038;-69
2022/06/19 00:21:46;;;;;;;12.63;6.95;;;23.40;80.30;;;;;;2071361;28;20026;-69
2022/06/19 00:22:47;;;;;;;14.38;6.97;;;23.40;80.30;;;;;;2071626;28;20022;-68
2022/06/19 00:23:47;;;;;;;12.23;7.00;;;23.40;80.40;;;;;;2071549;28;20365;-68
2022/06/19 00:24:48;;;;;;;13.85;7.05;;;23.40;80.40;;;;;;2071409;28;20032;-69
2022/06/19 00:25:49;;;;;;;12.88;6.80;;;23.40;80.50;;;;;;2071528;28;20042;-69
2022/06/19 00:26:49;;;;;;;12.57;7.00;;;23.30;80.40;;;;;;2071549;28;20061;-68
2022/06/19 00:27:50;;;;;;;13.13;6.75;;;23.30;80.50;;;;;;2070899;28;20034;-69
2022/06/19 00:28:51;;;;;;;13.57;6.80;;;23.30;80.50;;;;;;2070619;28;20079;-69
2022/06/19 00:29:52;;;;;;;15.10;7.05;;;23.20;80.40;;;;;;2071474;28;20057;-68
2022/06/19 00:30:53;;;;;;;13.15;6.90;;;23.30;80.40;;;;;;2071315;28;20032;-68
2022/06/19 00:31:55;;;;;;;16.42;7.18;;;23.20;80.40;;;;;;2070829;28;20029;-69
2022/06/19 00:32:56;;;;;;;13.25;6.57;;;23.20;80.30;;;;;;2062851;28;20140;-69
2022/06/19 00:33:57;;;;;;;15.25;6.55;;;23.20;80.20;;;;;;2070923;28;20116;-68
2022/06/19 00:34:57;;;;;;;13.35;6.50;;;23.20;80.20;;;;;;2071341;28;20376;-68
2022/06/19 00:35:58;;;;;;;12.60;6.55;;;23.20;80.20;;;;;;2071681;28;20086;-69
2022/06/19 00:37:01;;;;;;;14.80;7.28;;;23.20;80.20;;;;;;2071552;28;20037;-68
2022/06/19 00:38:01;;;;;;;11.25;6.53;;;23.20;80.10;;;;;;2071364;28;20029;-68
2022/06/19 00:39:02;;;;;;;13.02;6.50;;;23.20;80.00;;;;;;2071069;28;20029;-68
2022/06/19 00:40:08;;;;;;;15.90;6.15;;;23.20;80.00;;;;;;2071262;28;20034;-68
2022/06/19 00:41:09;;;;;;;14.43;6.82;;;23.20;80.00;;;;;;2071469;28;20025;-68
2022/06/19 00:42:12;;;;;;;14.55;6.70;;;23.20;80.00;;;;;;2071138;28;20018;-68
2022/06/19 00:43:12;;;;;;;16.52;6.78;;;23.20;79.90;;;;;;2070946;28;20018;-69
2022/06/19 00:44:15;;;;;;;9.32;6.20;;;23.20;80.00;;;;;;2070805;28;20051;-69
2022/06/19 00:45:42;;;;;;;11.23;6.63;;;23.20;80.00;;;;;;2070643;28;20033;-70
2022/06/19 00:46:59;;;;;;;19.05;6.50;;;23.20;80.00;;;;;;2070793;28;20030;-68
2022/06/19 00:48:21;;;;;;;14.63;6.95;;;23.20;80.00;;;;;;2070929;28;20038;-68
2022/06/19 00:49:24;;;;;;;14.85;6.60;;;23.20;80.10;;;;;;2070726;28;20480;-68
2022/06/19 00:50:31;;;;;;;11.85;6.72;;;23.10;80.10;;;;;;2070041;28;20133;-68
2022/06/19 00:51:32;;;;;;;11.85;6.68;;;23.10;80.10;;;;;;2063085;28;20038;-68
2022/06/19 00:52:37;;;;;;;14.32;6.57;;;23.20;80.20;;;;;;2070422;28;20066;-68
2022/06/19 00:53:45;;;;;;;14.50;7.07;;;23.10;80.30;;;;;;2070973;28;20040;-68
2022/06/19 00:55:04;;;;;;;13.52;6.40;;;23.10;80.30;;;;;;2071091;28;20402;-68
2022/06/19 00:56:11;;;;;;;13.15;6.90;;;23.10;80.40;;;;;;2070355;28;20026;-68
2022/06/19 00:57:14;;;;;;;12.45;6.18;;;23.10;80.60;;;;;;2070543;28;20377;-69
2022/06/19 00:58:28;;;;;;;13.65;6.68;;;23.10;80.60;;;;;;2071175;28;20101;-68
2022/06/19 00:59:29;;;;;;;10.65;6.43;;;23.10;80.50;;;;;;2070995;28;20030;-69
2022/06/19 01:00:31;;;;;;;18.52;7.15;;;23.00;80.40;;;;;;2070204;28;20026;-69
2022/06/19 01:01:32;;;;;;;12.25;7.20;;;23.00;80.40;;;;;;2070194;28;20026;-69
2022/06/19 01:02:33;;;;;;;13.15;6.95;;;23.00;80.40;;;;;;2070709;28;20076;-67
2022/06/19 01:03:59;;;;;;;13.45;6.63;;;23.00;81.20;;;;;;2070506;28;20601;-66
2022/06/19 01:05:01;;;;;;;15.63;6.68;;;23.00;80.60;;;;;;2070152;28;20037;-67
2022/06/19 01:06:02;;;;;;;12.35;6.40;;;23.00;80.50;;;;;;2070155;28;20045;-67
2022/06/19 01:07:03;;;;;;;10.77;6.18;;;23.00;80.60;;;;;;2070901;28;20472;-67
2022/06/19 01:08:04;;;;;;;14.93;6.75;;;23.00;80.60;;;;;;2070769;28;20041;-67
2022/06/19 01:09:04;;;;;;;11.50;6.40;;;23.00;80.60;;;;;;2069851;28;20037;-67
2022/06/19 01:10:06;;;;;;;11.93;6.57;;;23.00;81.40;;;;;;2069987;28;20478;-68
2022/06/19 01:11:07;;;;;;;10.38;6.07;;;23.00;80.70;;;;;;2070194;28;20018;-69
2022/06/19 01:12:08;;;;;;;12.57;6.47;;;23.00;80.70;;;;;;2070883;28;20033;-68
2022/06/19 01:13:11;;;;;;;12.25;6.40;;;22.90;80.70;;;;;;2070124;28;20756;-68
2022/06/19 01:14:17;;;;;;;11.23;6.55;;;22.90;80.80;;;;;;2061720;28;20143;-67
2022/06/19 01:15:20;;;;;;;13.23;6.55;;;22.90;80.80;;;;;;2070290;28;20018;-67
2022/06/19 01:16:21;;;;;;;10.80;6.38;;;22.90;81.00;;;;;;2070808;28;20036;-68
2022/06/19 01:17:22;;;;;;;12.00;6.30;;;22.90;80.90;;;;;;2070829;28;20172;-67
2022/06/19 01:18:23;;;;;;;12.50;6.40;;;22.90;81.00;;;;;;2070587;28;20022;-68
2022/06/19 01:19:26;;;;;;;13.23;6.65;;;22.90;81.10;;;;;;2069988;28;20030;-67
2022/06/19 01:20:28;;;;;;;13.25;6.80;;;22.90;81.20;;;;;;2070053;28;20037;-67
2022/06/19 01:21:50;;;;;;;13.30;6.18;;;22.90;81.40;;;;;;2070754;28;20819;-67
2022/06/19 01:23:02;;;;;;;13.65;6.38;;;22.80;81.40;;;;;;2070760;28;20403;-67
2022/06/19 01:24:22;;;;;;;12.43;6.32;;;22.80;81.50;;;;;;2070559;28;20040;-67
2022/06/19 01:25:28;;;;;;;15.00;6.72;;;22.80;81.60;;;;;;2070715;28;20029;-67
2022/06/19 01:26:32;;;;;;;11.88;6.50;;;22.80;81.60;;;;;;2070457;28;20075;-67
2022/06/19 01:28:57;;;;;;;12.10;6.68;;;22.70;81.50;;;;;;2069963;28;20018;-68
2022/06/19 01:29:58;;;;;;;12.98;6.60;;;22.70;81.50;;;;;;2070322;28;20113;-67
2022/06/19 01:31:01;;;;;;;14.00;6.13;;;22.70;81.60;;;;;;2070511;28;20073;-67
2022/06/19 01:32:07;;;;;;;14.07;6.38;;;22.70;81.70;;;;;;2070576;28;20045;-68
2022/06/19 01:33:11;;;;;;;11.40;6.13;;;22.70;81.80;;;;;;2070456;28;20065;-68
2022/06/19 01:34:35;;;;;;;11.82;6.18;;;22.70;81.80;;;;;;2070464;28;20038;-67
2022/06/19 01:35:37;;;;;;;10.25;6.18;;;22.70;81.80;;;;;;2070579;28;20061;-67
2022/06/19 01:36:38;;;;;;;12.15;6.32;;;22.70;82.00;;;;;;2070550;28;20041;-67
2022/06/19 01:37:40;;;;;;;11.55;6.18;;;22.60;81.90;;;;;;2070550;28;20026;-67
2022/06/19 01:38:43;;;;;;;11.48;6.53;;;22.60;82.00;;;;;;2070088;28;20034;-67
2022/06/19 01:39:48;;;;;;;10.65;6.03;;;22.60;82.20;;;;;;2069805;28;20026;-67
2022/06/19 01:40:53;;;;;;;13.80;6.45;;;22.60;82.30;;;;;;2070008;28;20034;-67
2022/06/19 01:41:54;;;;;;;11.52;6.05;;;22.60;82.30;;;;;;2070547;28;20025;-67
2022/06/19 01:42:55;;;;;;;11.25;6.10;;;22.60;82.40;;;;;;2070426;28;20034;-67
2022/06/19 01:43:56;;;;;;;11.18;6.05;;;22.60;82.30;;;;;;2070317;28;20566;-67
2022/06/19 01:44:57;;;;;;;10.95;5.97;;;22.60;82.40;;;;;;2070493;28;20026;-67
2022/06/19 01:45:58;;;;;;;11.00;5.93;;;22.60;82.60;;;;;;2070406;28;20403;-67
2022/06/19 01:47:00;;;;;;;12.52;6.22;;;22.60;82.70;;;;;;2070270;28;20049;-67
2022/06/19 01:48:01;;;;;;;10.60;6.07;;;22.60;82.80;;;;;;2070416;28;20105;-67
2022/06/19 01:49:02;;;;;;;12.82;6.18;;;22.60;82.90;;;;;;2070245;28;20041;-67
2022/06/19 01:50:09;;;;;;;14.65;5.97;;;22.60;83.00;;;;;;2070479;28;20026;-67
2022/06/19 01:51:09;;;;;;;13.07;6.30;;;22.50;83.30;;;;;;2070625;28;20072;-67
2022/06/19 01:52:10;;;;;;;12.52;6.55;;;22.60;83.50;;;;;;2070495;28;20497;-67
2022/06/19 01:53:17;;;;;;;12.93;8.02;;;22.50;83.70;;;;;;2070355;28;20468;-67
2022/06/19 01:54:25;;;;;;;28.08;18.13;;;22.50;83.60;;;;;;2070335;28;20026;-67
2022/06/19 01:55:28;;;;;;;21.85;14.38;;;22.50;83.70;;;;;;2070496;28;20020;-68
2022/06/19 01:56:30;;;;;;;18.92;11.48;;;22.50;83.80;;;;;;2070521;28;20038;-67
2022/06/19 01:57:34;;;;;;;18.48;9.60;;;22.40;83.90;;;;;;2070438;28;20026;-67
2022/06/19 01:58:37;;;;;;;16.48;8.38;;;22.40;84.10;;;;;;2069978;28;20052;-67
2022/06/19 01:59:41;;;;;;;16.65;8.18;;;22.40;84.20;;;;;;2070335;28;20060;-67
2022/06/19 02:00:43;;;;;;;12.55;7.75;;;22.40;84.20;;;;;;2070305;28;20128;-67
2022/06/19 02:01:44;;;;;;;14.73;7.25;;;22.40;84.40;;;;;;2069620;28;20033;-67
2022/06/19 02:02:51;;;;;;;12.85;7.45;;;22.40;84.40;;;;;;2069765;28;20053;-68
2022/06/19 02:03:56;;;;;;;12.65;6.90;;;22.40;84.50;;;;;;2070350;28;20038;-67
2022/06/19 02:04:56;;;;;;;13.68;7.22;;;22.30;84.60;;;;;;2070224;28;20061;-67
2022/06/19 02:05:58;;;;;;;13.65;7.07;;;22.40;84.90;;;;;;2070541;28;20041;-67
2022/06/19 02:07:02;;;;;;;12.52;6.78;;;22.30;84.80;;;;;;2070468;28;20750;-67
2022/06/19 02:08:04;;;;;;;13.77;7.38;;;22.30;85.00;;;;;;2070515;28;20034;-67
2022/06/19 02:09:05;;;;;;;14.13;6.93;;;22.30;85.30;;;;;;2070190;28;20567;-67
2022/06/19 02:10:07;;;;;;;12.07;6.50;;;22.30;85.30;;;;;;2070312;28;20045;-67
2022/06/19 02:11:11;;;;;;;14.70;6.85;;;22.30;85.50;;;;;;2070415;28;20029;-67
2022/06/19 02:12:11;;;;;;;10.82;6.70;;;22.20;85.40;;;;;;2070512;28;20138;-67
2022/06/19 02:13:15;;;;;;;14.95;6.65;;;22.20;85.60;;;;;;2070426;28;20052;-67
2022/06/19 02:14:17;;;;;;;13.18;6.82;;;22.20;85.60;;;;;;2069425;28;20034;-67
2022/06/19 02:15:18;;;;;;;14.35;6.95;;;22.20;85.60;;;;;;2061957;28;20034;-67
2022/06/19 02:16:22;;;;;;;15.75;6.95;;;22.20;85.80;;;;;;2069755;28;20109;-67
2022/06/19 02:17:33;;;;;;;15.63;7.10;;;22.20;86.10;;;;;;2070378;28;20098;-67
2022/06/19 02:18:38;;;;;;;12.02;6.18;;;22.20;86.20;;;;;;2070266;28;20026;-67
2022/06/19 02:19:38;;;;;;;8.63;6.15;;;22.20;86.10;;;;;;2070333;28;20570;-67
2022/06/19 02:20:39;;;;;;;10.73;6.20;;;22.20;86.00;;;;;;2070203;28;20030;-67
2022/06/19 02:21:44;;;;;;;13.25;6.38;;;22.20;85.80;;;;;;2070431;28;20060;-67
2022/06/19 02:22:44;;;;;;;11.75;6.85;;;22.10;85.70;;;;;;2070328;28;20032;-67
2022/06/19 02:23:47;;;;;;;17.33;6.97;;;22.20;85.80;;;;;;2070354;28;20033;-67
2022/06/19 02:24:48;;;;;;;12.07;6.28;;;22.10;85.80;;;;;;2070385;28;20064;-67
2022/06/19 02:25:50;;;;;;;10.95;6.30;;;22.10;85.80;;;;;;2070428;28;20104;-67
2022/06/19 02:26:51;;;;;;;11.25;6.05;;;22.10;85.80;;;;;;2070281;28;20120;-67
2022/06/19 02:27:53;;;;;;;8.30;5.70;;;22.10;85.80;;;;;;2070280;28;20041;-67
2022/06/19 02:28:53;;;;;;;11.95;5.60;;;22.10;85.90;;;;;;2070052;28;20559;-67
2022/06/19 02:29:54;;;;;;;14.43;5.90;;;22.10;85.80;;;;;;2070255;28;20034;-67
2022/06/19 02:30:55;;;;;;;13.20;6.53;;;22.10;85.90;;;;;;2070232;28;20033;-67
2022/06/19 02:31:56;;;;;;;11.68;6.07;;;22.10;86.00;;;;;;2070139;28;20061;-67
2022/06/19 02:32:57;;;;;;;9.65;5.63;;;22.10;86.00;;;;;;2070146;28;20030;-67
2022/06/19 02:34:01;;;;;;;11.82;6.30;;;22.10;85.90;;;;;;2070246;28;20029;-67
2022/06/19 02:35:02;;;;;;;12.30;6.22;;;22.10;86.00;;;;;;2070230;28;20072;-67
2022/06/19 02:36:37;;;;;;;12.70;6.07;;;22.00;85.80;;;;;;2070199;28;20037;-67
2022/06/19 02:37:43;;;;;;;11.55;6.03;;;22.00;85.90;;;;;;2070370;28;20069;-67
2022/06/19 02:38:44;;;;;;;12.05;5.80;;;22.00;85.90;;;;;;2070129;28;20483;-67
2022/06/19 02:40:06;;;;;;;13.93;6.18;;;22.00;86.00;;;;;;2069491;28;20537;-67
2022/06/19 02:41:17;;;;;;;14.50;6.50;;;22.00;86.00;;;;;;2069209;28;20036;-67
2022/06/19 02:42:21;;;;;;;11.75;6.15;;;22.00;86.20;;;;;;2070253;28;20537;-67
2022/06/19 02:43:28;;;;;;;16.27;6.60;;;22.00;86.20;;;;;;2070219;28;20026;-67
2022/06/19 02:44:37;;;;;;;12.60;5.78;;;22.00;86.30;;;;;;2070259;28;20039;-67
2022/06/19 02:45:39;;;;;;;11.30;6.13;;;22.00;86.30;;;;;;2070357;28;20038;-67
2022/06/19 02:46:40;;;;;;;10.65;6.18;;;22.00;86.40;;;;;;2070259;28;20087;-67
2022/06/19 02:47:41;;;;;;;12.18;6.10;;;22.00;86.30;;;;;;2070311;28;20025;-67
2022/06/19 02:48:42;;;;;;;11.05;6.00;;;22.00;86.30;;;;;;2069925;28;20040;-67
2022/06/19 02:49:43;;;;;;;15.57;5.80;;;22.00;86.30;;;;;;2070075;28;20034;-67
2022/06/19 02:50:44;;;;;;;13.88;6.07;;;22.00;86.20;;;;;;2070026;28;20029;-67
2022/06/19 02:51:45;;;;;;;13.52;6.30;;;22.00;86.30;;;;;;2070138;28;20038;-67
2022/06/19 02:52:47;;;;;;;12.68;6.03;;;22.00;86.20;;;;;;2070087;28;20147;-67
2022/06/19 02:53:48;;;;;;;10.50;5.68;;;22.00;86.20;;;;;;2070074;28;20386;-67
2022/06/19 02:54:49;;;;;;;12.65;5.97;;;22.00;86.10;;;;;;2069938;28;20045;-67
2022/06/19 02:55:50;;;;;;;13.57;6.28;;;22.00;86.00;;;;;;2070115;28;20058;-67
2022/06/19 02:56:50;;;;;;;13.18;6.13;;;22.00;86.00;;;;;;2070154;28;20026;-68
2022/06/19 02:57:51;;;;;;;10.05;5.53;;;22.00;86.20;;;;;;2070078;28;20103;-68
2022/06/19 02:58:52;;;;;;;11.30;5.53;;;22.00;86.00;;;;;;2069959;28;20624;-66
2022/06/19 02:59:53;;;;;;;11.70;6.20;;;22.00;86.00;;;;;;2070078;28;20038;-66
2022/06/19 03:00:54;;;;;;;15.02;6.10;;;22.00;86.00;;;;;;2070230;28;20060;-66
2022/06/19 03:01:54;;;;;;;14.00;5.65;;;22.00;86.00;;;;;;2070231;28;20392;-67
2022/06/19 03:02:59;;;;;;;15.20;6.82;;;22.00;86.20;;;;;;2070264;28;20053;-66
2022/06/19 03:04:00;;;;;;;13.93;6.70;;;22.00;86.30;;;;;;2069955;28;20516;-67
2022/06/19 03:05:04;;;;;;;14.75;6.97;;;22.00;86.20;;;;;;2070243;28;20022;-67
2022/06/19 03:06:06;;;;;;;16.75;6.55;;;22.00;86.20;;;;;;2070316;28;20030;-67
2022/06/19 03:07:06;;;;;;;15.18;6.13;;;22.00;86.10;;;;;;2069364;28;20054;-68
2022/06/19 03:08:07;;;;;;;15.35;6.47;;;22.00;86.00;;;;;;2069478;28;20033;-67
2022/06/19 03:09:08;;;;;;;13.23;6.18;;;22.00;86.00;;;;;;2069844;28;20034;-67
2022/06/19 03:10:09;;;;;;;11.93;5.82;;;22.00;86.80;;;;;;2069907;28;20037;-67
2022/06/19 03:11:10;;;;;;;12.23;5.85;;;22.00;85.70;;;;;;2069964;28;20045;-67
2022/06/19 03:12:11;;;;;;;13.23;5.68;;;22.00;85.90;;;;;;2069963;28;20020;-67
2022/06/19 03:13:12;;;;;;;14.90;5.90;;;22.00;85.70;;;;;;2069360;28;20029;-67
2022/06/19 03:14:13;;;;;;;16.27;6.40;;;22.10;85.70;;;;;;2061133;28;20042;-67
2022/06/19 03:15:15;;;;;;;15.35;6.18;;;22.00;85.70;;;;;;2069336;28;20026;-67
2022/06/19 03:16:16;;;;;;;14.13;6.35;;;22.10;85.40;;;;;;2069820;28;20023;-67
2022/06/19 03:17:19;;;;;;;10.23;5.97;;;22.10;85.40;;;;;;2070039;28;20029;-69
2022/06/19 03:18:20;;;;;;;12.98;5.60;;;22.20;85.30;;;;;;2069948;28;20452;-67
2022/06/19 03:19:21;;;;;;;13.80;5.90;;;22.20;85.20;;;;;;2070207;28;20097;-67
2022/06/19 03:20:24;;;;;;;11.13;6.07;;;22.20;85.00;;;;;;2069796;28;20022;-68
2022/06/19 03:21:26;;;;;;;13.32;6.18;;;22.20;84.80;;;;;;2069868;28;20030;-68
2022/06/19 03:22:26;;;;;;;14.48;6.72;;;22.20;84.80;;;;;;2069305;28;20026;-67
2022/06/19 03:23:27;;;;;;;11.00;6.07;;;22.30;84.90;;;;;;2069369;28;20057;-67
2022/06/19 03:24:28;;;;;;;10.82;5.93;;;22.30;84.80;;;;;;2069841;28;20026;-67
2022/06/19 03:25:29;;;;;;;11.80;5.75;;;22.30;84.60;;;;;;2069967;28;20030;-67
2022/06/19 03:26:30;;;;;;;15.18;6.65;;;22.30;84.40;;;;;;2069951;28;20135;-67
2022/06/19 03:27:31;;;;;;;12.23;6.05;;;22.30;84.40;;;;;;2069971;28;20080;-67
2022/06/19 03:28:32;;;;;;;14.02;6.20;;;22.40;84.20;;;;;;2069647;28;20033;-67
2022/06/19 03:29:33;;;;;;;15.43;6.53;;;22.40;84.00;;;;;;2069229;28;20048;-67
2022/06/19 03:30:34;;;;;;;16.40;6.20;;;22.40;83.90;;;;;;2068943;28;20034;-67
2022/06/19 03:31:34;;;;;;;13.18;6.10;;;22.40;84.20;;;;;;2069874;28;20571;-67
2022/06/19 03:32:35;;;;;;;12.20;6.30;;;22.40;83.90;;;;;;2069753;28;20514;-67
2022/06/19 03:33:36;;;;;;;12.55;6.13;;;22.40;83.90;;;;;;2069246;28;20030;-67
2022/06/19 03:34:37;;;;;;;13.80;6.22;;;22.40;83.90;;;;;;2069182;28;20038;-68
2022/06/19 03:35:38;;;;;;;16.58;6.60;;;22.40;83.80;;;;;;2069822;28;20033;-68
2022/06/19 03:36:38;;;;;;;11.32;6.55;;;22.40;83.70;;;;;;2070018;28;20034;-67
2022/06/19 03:37:39;;;;;;;15.20;6.15;;;22.50;83.70;;;;;;2069916;28;20061;-67
2022/06/19 03:38:41;;;;;;;13.10;6.10;;;22.50;83.80;;;;;;2069415;28;20064;-67
2022/06/19 03:39:42;;;;;;;14.18;5.90;;;22.50;83.70;;;;;;2069845;28;20491;-68
2022/06/19 03:40:43;;;;;;;12.38;5.93;;;22.50;83.70;;;;;;2069774;28;20058;-68
2022/06/19 03:41:44;;;;;;;10.48;5.30;;;22.50;83.70;;;;;;2069881;28;20033;-67
2022/06/19 03:42:44;;;;;;;13.23;5.78;;;22.50;83.70;;;;;;2069820;28;20030;-67
2022/06/19 03:43:45;;;;;;;11.27;5.65;;;22.60;83.60;;;;;;2069812;28;20026;-68
2022/06/19 03:44:46;;;;;;;10.13;5.43;;;22.60;83.40;;;;;;2069760;28;20468;-67
2022/06/19 03:45:46;;;;;;;13.27;5.65;;;22.70;83.40;;;;;;2069968;28;20075;-68
2022/06/19 03:46:47;;;;;;;11.77;6.00;;;22.70;83.20;;;;;;2069798;28;20563;-67
2022/06/19 03:47:48;;;;;;;17.05;6.18;;;22.70;83.20;;;;;;2069806;28;20029;-67
2022/06/19 03:48:51;;;;;;;11.93;6.40;;;22.70;82.90;;;;;;2069514;28;20121;-67
2022/06/19 03:49:52;;;;;;;14.68;6.28;;;22.70;82.80;;;;;;2069779;28;20038;-68
2022/06/19 03:50:53;;;;;;;12.73;6.30;;;22.70;82.70;;;;;;2069662;28;20050;-67
2022/06/19 03:51:54;;;;;;;11.02;5.60;;;22.70;82.60;;;;;;2069708;28;20533;-67
2022/06/19 03:52:54;;;;;;;14.55;5.80;;;22.80;82.60;;;;;;2069804;28;20046;-68
2022/06/19 03:53:56;;;;;;;14.65;6.30;;;22.90;82.50;;;;;;2070945;28;20032;-67
2022/06/19 03:54:57;;;;;;;13.48;6.72;;;22.90;82.30;;;;;;2071171;28;20053;-67
2022/06/19 03:55:58;;;;;;;10.68;6.38;;;22.90;81.90;;;;;;2071293;28;20503;-68
2022/06/19 03:56:59;;;;;;;10.98;6.60;;;22.90;81.90;;;;;;2071241;28;20111;-68
2022/06/19 03:58:00;;;;;;;12.43;6.15;;;23.00;81.90;;;;;;2071113;28;20049;-67
2022/06/19 03:59:00;;;;;;;13.68;6.00;;;23.00;81.60;;;;;;2070963;28;20049;-67
2022/06/19 04:00:02;;;;;;;9.43;5.55;;;23.00;81.60;;;;;;2071011;28;20487;-67
2022/06/19 04:01:18;;;;;;;15.38;6.40;;;23.10;81.50;;;;;;2071229;28;20026;-68
2022/06/19 04:02:19;;;;;;;13.50;5.93;;;23.10;81.10;;;;;;2070576;28;20038;-67
2022/06/19 04:03:19;;;;;;;14.05;5.90;;;23.20;80.90;;;;;;2070500;28;20022;-67
2022/06/19 04:04:20;;;;;;;14.65;6.22;;;23.20;80.70;;;;;;2071049;28;20022;-67
2022/06/19 04:05:21;;;;;;;12.10;5.63;;;23.30;80.40;;;;;;2070913;28;20082;-68
2022/06/19 04:06:27;;;;;;;9.95;5.50;;;23.40;80.20;;;;;;2071219;28;20026;-67
2022/06/19 04:07:28;;;;;;;9.88;5.50;;;23.50;79.80;;;;;;2071218;28;20742;-68
2022/06/19 04:08:28;;;;;;;13.73;5.70;;;23.60;79.30;;;;;;2070881;28;20030;-68
2022/06/19 04:09:29;;;;;;;14.23;6.03;;;23.70;79.00;;;;;;2071229;28;20038;-68
2022/06/19 04:10:30;;;;;;;13.73;5.53;;;23.80;78.60;;;;;;2071138;28;20038;-68
2022/06/19 04:11:31;;;;;;;14.18;5.65;;;23.90;78.00;;;;;;2071240;28;20033;-68
2022/06/19 04:12:32;;;;;;;11.00;5.53;;;24.00;77.50;;;;;;2071292;28;20078;-67
2022/06/19 04:13:36;;;;;;;10.25;5.30;;;24.10;77.30;;;;;;2071044;28;20026;-68
2022/06/19 04:14:37;;;;;;;13.65;5.93;;;24.30;77.00;;;;;;2071156;28;20053;-68
2022/06/19 04:15:37;;;;;;;11.25;5.70;;;24.30;76.40;;;;;;2071126;28;20469;-67
2022/06/19 04:16:39;;;;;;;13.50;5.68;;;24.40;76.80;;;;;;2071240;28;20047;-67
2022/06/19 04:17:40;;;;;;;10.95;5.78;;;24.50;75.70;;;;;;2062322;28;20468;-67
2022/06/19 04:18:41;;;;;;;13.88;5.90;;;24.60;75.40;;;;;;2062254;28;20030;-67
2022/06/19 04:19:41;;;;;;;12.60;5.88;;;24.70;75.20;;;;;;2070397;28;20033;-68
2022/06/19 04:20:42;;;;;;;14.40;5.70;;;24.70;74.80;;;;;;2070969;28;20471;-68
2022/06/19 04:21:44;;;;;;;12.10;5.90;;;24.80;74.60;;;;;;2071115;28;20056;-68
2022/06/19 04:22:45;;;;;;;10.77;5.40;;;24.80;74.40;;;;;;2071142;28;20022;-68
2022/06/19 04:23:46;;;;;;;15.00;5.95;;;24.90;74.30;;;;;;2070448;28;20030;-68
2022/06/19 04:24:47;;;;;;;13.85;5.88;;;24.90;74.00;;;;;;2070393;28;20105;-68
2022/06/19 04:25:48;;;;;;;14.63;6.10;;;25.00;73.80;;;;;;2071176;28;20049;-68
2022/06/19 04:26:49;;;;;;;12.88;5.57;;;25.10;73.60;;;;;;2071240;28;20823;-68
2022/06/19 04:27:50;;;;;;;11.93;5.50;;;25.20;73.40;;;;;;2071192;28;20034;-68
2022/06/19 04:28:50;;;;;;;12.43;5.57;;;25.20;73.10;;;;;;2070842;28;20056;-67
2022/06/19 04:29:51;;;;;;;12.73;5.50;;;25.30;73.20;;;;;;2071186;28;20120;-68
2022/06/19 04:30:53;;;;;;;11.13;5.63;;;25.30;72.90;;;;;;2071240;28;20041;-68
2022/06/19 04:31:55;;;;;;;10.27;5.22;;;25.40;72.90;;;;;;2071545;28;20708;-68
2022/06/19 04:32:56;;;;;;;16.48;6.45;;;25.50;72.90;;;;;;2071350;28;20073;-68
2022/06/19 04:33:57;;;;;;;10.20;5.53;;;25.50;73.00;;;;;;2071303;28;20079;-68
2022/06/19 04:34:57;;;;;;;13.85;5.88;;;25.50;73.00;;;;;;2071235;28;20064;-68
2022/06/19 04:35:58;;;;;;;8.98;5.15;;;25.60;72.70;;;;;;2071540;28;20163;-68
2022/06/19 04:36:59;;;;;;;10.63;5.30;;;25.70;72.50;;;;;;2071707;28;20373;-68
2022/06/19 04:37:59;;;;;;;11.07;5.57;;;25.80;72.10;;;;;;2071652;28;20033;-67
2022/06/19 04:39:00;;;;;;;13.98;5.88;;;25.90;71.40;;;;;;2071198;28;20046;-68
2022/06/19 04:40:01;;;;;;;13.32;5.85;;;25.90;71.20;;;;;;2071243;28;20026;-68
2022/06/19 04:41:02;;;;;;;10.43;5.45;;;25.90;70.90;;;;;;2071601;28;20042;-72
2022/06/19 04:42:05;;;;;;;14.20;5.72;;;26.00;70.70;;;;;;2071273;28;20030;-68
2022/06/19 04:43:06;;;;;;;13.25;5.80;;;26.00;70.20;;;;;;2070959;28;20037;-67
2022/06/19 04:44:11;;;;;;;9.55;5.20;;;26.10;70.00;;;;;;2070966;28;20037;-67
2022/06/19 04:45:12;;;;;;;11.77;5.60;;;26.20;69.70;;;;;;2070554;28;20033;-68
2022/06/19 04:46:13;;;;;;;10.13;5.18;;;26.30;69.40;;;;;;2070517;28;20100;-68
2022/06/19 04:47:14;;;;;;;13.07;5.57;;;26.50;69.00;;;;;;2071089;28;20033;-67
2022/06/19 04:48:14;;;;;;;9.05;4.95;;;26.60;68.50;;;;;;2071115;28;20064;-67
2022/06/19 04:49:15;;;;;;;18.75;5.57;;;26.70;68.80;;;;;;2070710;28;20101;-69
2022/06/19 04:50:16;;;;;;;15.27;5.68;;;26.70;67.40;;;;;;2070913;28;20022;-68
2022/06/19 04:51:17;;;;;;;12.57;5.88;;;26.60;67.40;;;;;;2070923;28;20032;-69
2022/06/19 04:52:18;;;;;;;12.45;5.53;;;26.70;67.40;;;;;;2071069;28;20037;-69
2022/06/19 04:53:19;;;;;;;12.30;5.28;;;26.80;67.30;;;;;;2071001;28;20026;-69
2022/06/19 04:54:19;;;;;;;11.20;4.95;;;26.80;67.00;;;;;;2070888;28;20155;-67
2022/06/19 04:55:21;;;;;;;14.35;5.35;;;26.90;66.80;;;;;;2070923;28;20102;-69
2022/06/19 04:56:22;;;;;;;16.90;5.72;;;27.00;67.00;;;;;;2071128;28;20052;-69
2022/06/19 04:57:23;;;;;;;14.27;5.60;;;27.10;66.20;;;;;;2070355;28;20033;-69
2022/06/19 04:58:24;;;;;;;16.55;5.60;;;27.10;65.70;;;;;;2070301;28;20034;-67
2022/06/19 04:59:24;;;;;;;12.30;5.35;;;27.10;65.50;;;;;;2071010;28;20518;-69
2022/06/19 05:00:25;;;;;;;10.90;5.25;;;27.30;65.60;;;;;;2070279;28;20448;-69
2022/06/19 05:01:29;;;;;;;13.43;5.80;;;27.40;65.20;;;;;;2070288;28;20022;-68
2022/06/19 05:02:30;;;;;;;12.27;5.15;;;27.50;64.80;;;;;;2071204;28;20468;-69
2022/06/19 05:03:31;;;;;;;14.25;5.43;;;27.60;64.60;;;;;;2071081;28;20040;-69
2022/06/19 05:04:31;;;;;;;12.98;5.82;;;27.60;64.20;;;;;;2069866;28;20033;-69
2022/06/19 05:05:32;;;;;;;13.73;5.30;;;27.60;64.00;;;;;;2070573;28;20022;-69
2022/06/19 05:06:33;;;;;;;12.40;6.53;;;27.60;64.20;;;;;;2070296;28;20053;-69
2022/06/19 05:07:34;;;;;;;14.27;5.80;;;27.70;64.20;;;;;;2070393;28;20026;-69
2022/06/19 05:08:35;;;;;;;14.15;5.18;;;27.60;63.80;;;;;;2070706;28;20041;-69
2022/06/19 05:09:36;;;;;;;17.98;6.45;;;27.60;64.00;;;;;;2071017;28;20041;-69
2022/06/19 05:10:37;;;;;;;12.90;5.28;;;27.60;63.80;;;;;;2070897;28;20026;-68
2022/06/19 05:11:37;;;;;;;20.02;5.80;;;27.60;64.00;;;;;;2071282;28;20096;-69
2022/06/19 05:12:38;;;;;;;12.52;5.50;;;27.50;64.00;;;;;;2071180;28;20543;-69
2022/06/19 05:13:39;;;;;;;14.15;5.93;;;27.50;64.20;;;;;;2071108;28;20196;-68
2022/06/19 05:14:40;;;;;;;20.65;5.88;;;27.60;64.30;;;;;;2071142;28;20030;-67
2022/06/19 05:15:41;;;;;;;14.63;5.43;;;27.70;63.90;;;;;;2071033;28;20113;-67
2022/06/19 05:16:41;;;;;;;13.93;5.50;;;27.60;63.90;;;;;;2071691;28;20496;-69
2022/06/19 05:17:42;;;;;;;16.55;5.20;;;27.60;64.00;;;;;;2062577;28;20733;-68
2022/06/19 05:18:43;;;;;;;13.25;5.70;;;27.70;63.80;;;;;;2096095;28;20499;-68
2022/06/19 05:19:44;;;;;;;18.10;5.68;;;27.80;63.80;;;;;;2070960;28;20543;-68
2022/06/19 05:20:44;;;;;;;15.50;7.05;;;27.80;63.80;;;;;;2071083;28;20040;-69
2022/06/19 05:21:45;;;;;;;13.82;6.00;;;27.70;64.00;;;;;;2070832;28;20038;-68
2022/06/19 05:22:46;;;;;;;12.57;5.55;;;27.70;64.30;;;;;;2070886;28;20476;-68